Strona główna
METAR-TAF:

METAR-TAF

Lotnisko :

Port lotniczy Nawakszut

Nawakszut, Mauretania

Szerokość geograficzna: 18-18-36N, Długość geograficzna: 015-58-11W, wysokość: 3 m

Aktualna obserwacja pogody

Raport powstał 37 minut temu, godzina 01:00 UTC
Wiatr 15 kt od północno-północny zachód
Temperatura 21°C
Wilgotność 88%
Ciśnienie 1012 hPa
Widzialność: 8000 m

METAR: GQNO 040100Z 33015KT 8000 NSC 21/19 Q1012 NOSIG

czas: 01:37 (01:37 UTC)

Prognoza

Raport powstał 2 godziny i 37 minut temu, godzina 23:00 UTC
Prognoza ważna od 04 godzina 00 UTC do 05 godzina 06 UTC
Wiatr 13 kt od północno-północny zachód
Widzialność: 8000 m

TAF: GQNO 032300Z 0400/0506 34013KT 8000 NSC

Obserwacja i prognoza pogody dla ponad 4000 lotnisk (raport METAR i TAF).

Dostępne stacje oznaczono żółtymi i czerwonymi punktami na mapie.

Najedź kursorem aby zobaczyć nazwę stacji.

Kliknij aby zobaczyć obserwacje i prognozy pogody.

Aby zmienić mapę: kliknij na zielony przycisk z czarnym krzyżykiem, aby powiększyć; na zielony przycisk z myślnikiem, aby pomniejszyć; na zielone strzałki, aby przejść do map sąsiednich.


METAR-TAF: